createdAt,value
2023-03-27T00:00:05.646Z,2.30
2023-03-27T00:01:05.594Z,2.30
2023-03-27T00:02:05.667Z,2.10
2023-03-27T00:03:05.690Z,2.10
2023-03-27T00:04:05.687Z,2.50
2023-03-27T00:05:05.583Z,2.20
2023-03-27T00:06:05.588Z,2.30
2023-03-27T00:07:05.537Z,2.10
2023-03-27T00:08:05.545Z,2.10
2023-03-27T00:09:05.563Z,2.00
2023-03-27T00:10:05.512Z,2.10
2023-03-27T00:11:05.569Z,2.10
2023-03-27T00:12:05.681Z,2.00
2023-03-27T00:13:05.488Z,2.00
2023-03-27T00:14:05.471Z,1.80
2023-03-27T00:15:05.465Z,1.90
2023-03-27T00:16:05.442Z,2.30
2023-03-27T00:17:05.510Z,1.90
2023-03-27T00:18:05.452Z,1.90
2023-03-27T00:19:05.434Z,1.70
2023-03-27T00:20:05.447Z,2.30
2023-03-27T00:21:05.422Z,3.20
2023-03-27T00:22:05.388Z,2.10
2023-03-27T00:23:05.410Z,2.00
2023-03-27T00:24:05.367Z,2.90
2023-03-27T00:25:05.415Z,2.10
2023-03-27T00:26:05.365Z,2.30
2023-03-27T00:27:05.370Z,2.30
2023-03-27T00:28:05.341Z,2.10
2023-03-27T00:29:05.315Z,2.20
2023-03-27T00:30:05.339Z,2.80
2023-03-27T00:31:05.317Z,2.10
2023-03-27T00:32:05.280Z,2.10
2023-03-27T00:33:05.292Z,2.50
2023-03-27T00:34:05.264Z,2.20
2023-03-27T00:35:05.276Z,2.00
2023-03-27T00:36:05.334Z,2.10
2023-03-27T00:37:05.260Z,2.10
2023-03-27T00:38:05.240Z,2.10
2023-03-27T00:39:05.207Z,2.30
2023-03-27T00:40:05.223Z,2.10
2023-03-27T00:41:05.266Z,2.10
2023-03-27T00:42:05.184Z,2.20
2023-03-27T00:43:05.168Z,1.80
2023-03-27T00:44:05.180Z,2.10
2023-03-27T00:45:05.227Z,2.10
2023-03-27T00:46:05.186Z,2.20
2023-03-27T00:47:05.147Z,1.80
2023-03-27T00:48:05.138Z,1.90
2023-03-27T00:49:05.121Z,2.10
2023-03-27T00:50:05.146Z,2.00
2023-03-27T00:51:05.123Z,2.00
2023-03-27T00:52:05.132Z,2.10
2023-03-27T00:53:05.088Z,1.80
2023-03-27T00:54:05.122Z,2.10
2023-03-27T00:55:05.092Z,2.30
2023-03-27T00:56:05.161Z,2.30
2023-03-27T00:57:05.036Z,2.20
2023-03-27T00:58:05.031Z,2.40
2023-03-27T00:59:04.999Z,2.60
2023-03-27T01:00:05.015Z,2.00
2023-03-27T01:01:04.997Z,2.40
2023-03-27T01:02:05.001Z,2.20
2023-03-27T01:03:05.155Z,2.00
2023-03-27T01:04:05.000Z,2.00
2023-03-27T01:05:04.976Z,2.20
2023-03-27T01:06:04.938Z,2.30
2023-03-27T01:07:04.915Z,2.70
2023-03-27T01:08:04.955Z,1.90
2023-03-27T01:09:04.941Z,2.40
2023-03-27T01:10:04.910Z,2.30
2023-03-27T01:11:04.896Z,2.30
2023-03-27T01:12:04.906Z,2.00
2023-03-27T01:13:04.902Z,2.30
2023-03-27T01:14:04.850Z,2.10
2023-03-27T01:15:04.843Z,2.20
2023-03-27T01:16:04.908Z,2.10
2023-03-27T01:17:04.842Z,2.20
2023-03-27T01:18:04.887Z,2.40
2023-03-27T01:19:04.777Z,2.00
2023-03-27T01:20:04.797Z,2.40
2023-03-27T01:21:04.819Z,2.40
2023-03-27T01:22:04.775Z,2.20
2023-03-27T01:23:04.744Z,2.10
2023-03-27T01:24:04.789Z,2.40
2023-03-27T01:25:04.746Z,2.20
2023-03-27T01:26:04.798Z,2.30
2023-03-27T01:27:04.720Z,2.10
2023-03-27T01:28:04.716Z,2.40
2023-03-27T01:29:04.710Z,2.50
2023-03-27T01:30:04.707Z,3.00
2023-03-27T01:31:04.713Z,2.00
2023-03-27T01:32:04.700Z,2.30
2023-03-27T01:33:04.753Z,2.10
2023-03-27T01:34:04.665Z,2.60
2023-03-27T01:35:04.645Z,2.10
2023-03-27T01:36:04.634Z,2.10
2023-03-27T01:37:04.621Z,2.20
2023-03-27T01:38:04.611Z,2.40
2023-03-27T01:39:04.615Z,2.70
2023-03-27T01:40:04.580Z,2.40
2023-03-27T01:41:04.575Z,2.10
2023-03-27T01:42:04.597Z,2.30
2023-03-27T01:43:04.564Z,2.20
2023-03-27T01:44:04.582Z,2.20
2023-03-27T01:45:04.524Z,2.20
2023-03-27T01:46:04.541Z,2.60
2023-03-27T01:47:04.583Z,2.50
2023-03-27T01:48:04.515Z,2.50
2023-03-27T01:49:04.497Z,2.50
2023-03-27T01:50:04.477Z,2.00
2023-03-27T01:51:04.494Z,2.10
2023-03-27T01:52:04.458Z,2.20
2023-03-27T01:53:04.442Z,1.90
2023-03-27T01:54:04.497Z,2.20
2023-03-27T01:55:04.421Z,2.20
2023-03-27T01:56:04.415Z,2.10
2023-03-27T01:57:04.531Z,2.10
2023-03-27T01:58:04.426Z,2.10
2023-03-27T01:59:04.437Z,2.00
2023-03-27T02:00:17.605Z,2.20
2023-03-27T02:01:04.519Z,2.20
2023-03-27T02:02:04.357Z,1.90
2023-03-27T02:03:04.392Z,1.90
2023-03-27T02:04:04.369Z,2.00
2023-03-27T02:05:04.443Z,2.10
2023-03-27T02:06:04.325Z,2.20
2023-03-27T02:07:04.345Z,1.90
2023-03-27T02:08:04.308Z,2.00
2023-03-27T02:09:04.445Z,1.90
2023-03-27T02:10:04.297Z,1.90
2023-03-27T02:11:04.266Z,2.40
2023-03-27T02:12:04.272Z,2.00
2023-03-27T02:13:04.234Z,1.60
2023-03-27T02:14:04.241Z,2.20
2023-03-27T02:15:23.679Z,1.90
2023-03-27T02:16:04.247Z,2.00
2023-03-27T02:17:04.290Z,2.20
2023-03-27T02:18:04.229Z,1.90
2023-03-27T02:19:04.182Z,1.80
2023-03-27T02:20:04.191Z,1.90
2023-03-27T02:21:04.170Z,2.30
2023-03-27T02:22:04.187Z,2.10
2023-03-27T02:23:04.177Z,2.10
2023-03-27T02:24:04.153Z,2.00
2023-03-27T02:25:04.214Z,1.90
2023-03-27T02:26:04.185Z,2.10
2023-03-27T02:27:04.151Z,2.00
2023-03-27T02:28:04.139Z,1.80
2023-03-27T02:29:04.086Z,2.40
2023-03-27T02:30:04.192Z,2.10
2023-03-27T02:31:06.787Z,2.20
2023-03-27T02:32:04.141Z,2.20
2023-03-27T02:33:04.176Z,2.30
2023-03-27T02:34:04.069Z,2.00
2023-03-27T02:35:04.034Z,2.10
2023-03-27T02:36:04.086Z,2.00
2023-03-27T02:37:04.016Z,2.10
2023-03-27T02:38:03.992Z,2.10
2023-03-27T02:39:03.978Z,1.90
2023-03-27T02:40:03.993Z,2.40
2023-03-27T02:41:04.019Z,2.30
2023-03-27T02:42:03.982Z,2.20
2023-03-27T02:43:03.985Z,1.70
2023-03-27T02:44:03.947Z,2.30
2023-03-27T02:45:03.916Z,2.60
2023-03-27T02:46:03.995Z,2.00
2023-03-27T02:47:03.913Z,1.90
2023-03-27T02:48:03.952Z,2.50
2023-03-27T02:49:03.886Z,2.00
2023-03-27T02:50:03.909Z,2.00
2023-03-27T02:51:03.893Z,2.00
2023-03-27T02:52:03.872Z,1.80
2023-03-27T02:53:03.831Z,2.00
2023-03-27T02:54:03.886Z,2.00
2023-03-27T02:55:03.920Z,1.90
2023-03-27T02:56:03.838Z,2.10
2023-03-27T02:57:03.909Z,2.10
2023-03-27T02:58:03.810Z,2.00
2023-03-27T02:59:03.781Z,2.00
2023-03-27T03:00:03.814Z,2.20
2023-03-27T03:01:03.822Z,2.20
2023-03-27T03:02:03.805Z,2.00
2023-03-27T03:03:03.817Z,1.90
2023-03-27T03:04:03.764Z,2.30
2023-03-27T03:05:03.750Z,1.70
2023-03-27T03:06:03.710Z,2.30
2023-03-27T03:07:03.721Z,2.00
2023-03-27T03:08:03.730Z,2.00
2023-03-27T03:09:03.704Z,2.00
2023-03-27T03:10:03.694Z,1.90
2023-03-27T03:11:03.652Z,2.20
2023-03-27T03:12:03.736Z,1.90
2023-03-27T03:13:03.669Z,1.90
2023-03-27T03:14:03.711Z,1.90
2023-03-27T03:15:03.619Z,2.10
2023-03-27T03:16:03.613Z,2.60
2023-03-27T03:17:03.589Z,2.20
2023-03-27T03:18:03.675Z,2.20
2023-03-27T03:19:03.633Z,1.90
2023-03-27T03:20:03.608Z,2.20
2023-03-27T03:21:03.569Z,2.10
2023-03-27T03:22:03.575Z,2.30
2023-03-27T03:23:03.570Z,2.30
2023-03-27T03:24:03.552Z,2.20
2023-03-27T03:25:03.517Z,1.90
2023-03-27T03:26:03.517Z,2.10
2023-03-27T03:27:03.537Z,2.40
2023-03-27T03:28:03.545Z,2.30
2023-03-27T03:29:03.521Z,2.00
2023-03-27T03:30:03.495Z,2.10
2023-03-27T03:31:03.530Z,2.80
2023-03-27T03:32:03.480Z,2.10
2023-03-27T03:33:03.449Z,2.20
2023-03-27T03:34:03.443Z,2.30
2023-03-27T03:35:03.423Z,2.30
2023-03-27T03:36:03.473Z,2.50
2023-03-27T03:37:03.431Z,1.90
2023-03-27T03:38:03.384Z,2.10
2023-03-27T03:39:03.404Z,2.40
2023-03-27T03:40:03.401Z,2.10
2023-03-27T03:41:03.348Z,1.90
2023-03-27T03:42:03.403Z,2.30
2023-03-27T03:43:03.325Z,2.10
2023-03-27T03:44:03.382Z,2.20
2023-03-27T03:45:03.343Z,2.20
2023-03-27T03:46:03.345Z,2.10
2023-03-27T03:47:03.347Z,2.20
2023-03-27T03:48:03.317Z,2.30
2023-03-27T03:49:03.267Z,2.70
2023-03-27T03:50:03.296Z,2.10
2023-03-27T03:51:03.274Z,2.50
2023-03-27T03:52:04.864Z,2.20
2023-03-27T03:53:03.245Z,2.20
2023-03-27T03:54:03.265Z,2.10
2023-03-27T03:55:03.250Z,2.10
2023-03-27T03:56:03.203Z,2.40
2023-03-27T03:57:03.465Z,2.30
2023-03-27T03:58:03.181Z,2.40
2023-03-27T03:59:03.208Z,2.00
2023-03-27T04:00:03.176Z,2.40
2023-03-27T04:01:03.167Z,3.00
2023-03-27T04:02:03.350Z,2.40
2023-03-27T04:03:03.197Z,2.20
2023-03-27T04:04:03.146Z,2.80
2023-03-27T04:05:08.970Z,2.60
2023-03-27T04:06:03.130Z,2.20
2023-03-27T04:07:03.138Z,2.20
2023-03-27T04:08:03.072Z,2.20
2023-03-27T04:09:03.069Z,1.90
2023-03-27T04:10:03.055Z,2.50
2023-03-27T04:11:03.083Z,2.20
2023-03-27T04:12:03.078Z,2.30
2023-03-27T04:13:03.049Z,2.60
2023-03-27T04:14:03.029Z,2.90
2023-03-27T04:15:03.007Z,2.30
2023-03-27T04:16:03.080Z,2.20
2023-03-27T04:17:03.079Z,2.10
2023-03-27T04:18:03.046Z,1.90
2023-03-27T04:19:03.008Z,2.30
2023-03-27T04:20:03.007Z,2.70
2023-03-27T04:21:02.986Z,2.50
2023-03-27T04:22:02.963Z,2.10
2023-03-27T04:23:02.958Z,2.30
2023-03-27T04:24:03.047Z,2.20
2023-03-27T04:25:02.898Z,2.80
2023-03-27T04:26:02.910Z,2.40
2023-03-27T04:27:02.918Z,1.90
2023-03-27T04:28:02.932Z,2.20
2023-03-27T04:29:02.890Z,2.40
2023-03-27T04:30:02.880Z,2.70
2023-03-27T04:31:02.932Z,2.50
2023-03-27T04:32:02.847Z,2.10
2023-03-27T04:33:02.887Z,2.20
2023-03-27T04:34:02.833Z,1.90
2023-03-27T04:35:02.844Z,2.30
2023-03-27T04:36:05.447Z,2.30
2023-03-27T04:37:02.780Z,2.40
2023-03-27T04:38:02.822Z,2.10
2023-03-27T04:39:02.830Z,2.70
2023-03-27T04:40:02.775Z,2.60
2023-03-27T04:41:02.794Z,2.10
2023-03-27T04:42:02.737Z,2.10
2023-03-27T04:43:02.699Z,1.90
2023-03-27T04:44:02.731Z,2.30
2023-03-27T04:45:02.660Z,2.20
2023-03-27T04:46:02.662Z,2.10
2023-03-27T04:47:02.698Z,1.90
2023-03-27T04:48:02.722Z,2.10
2023-03-27T04:49:02.635Z,2.20
2023-03-27T04:50:02.600Z,2.40
2023-03-27T04:51:02.651Z,2.10
2023-03-27T04:52:02.580Z,2.10
2023-03-27T04:53:02.598Z,2.00
2023-03-27T04:54:02.635Z,2.10
2023-03-27T04:55:02.581Z,2.00
2023-03-27T04:56:02.546Z,2.00
2023-03-27T04:57:02.567Z,2.20
2023-03-27T04:58:02.529Z,2.10
2023-03-27T04:59:02.556Z,2.20
2023-03-27T05:00:02.572Z,2.30
2023-03-27T05:01:02.612Z,2.00
2023-03-27T05:02:02.547Z,2.20
2023-03-27T05:03:02.612Z,2.20
2023-03-27T05:04:02.620Z,2.70
2023-03-27T05:05:02.484Z,2.20
2023-03-27T05:06:02.444Z,2.10
2023-03-27T05:07:02.505Z,2.00
2023-03-27T05:08:02.413Z,2.00
2023-03-27T05:09:02.467Z,2.20
2023-03-27T05:10:02.396Z,2.30
2023-03-27T05:11:02.416Z,2.10
2023-03-27T05:12:02.414Z,2.10
2023-03-27T05:13:02.369Z,2.10
2023-03-27T05:14:02.359Z,2.10
2023-03-27T05:15:02.394Z,2.00
2023-03-27T05:16:02.345Z,2.30
2023-03-27T05:17:02.324Z,2.10
2023-03-27T05:18:02.393Z,2.00
2023-03-27T05:19:02.371Z,2.00
2023-03-27T05:20:02.321Z,2.30
2023-03-27T05:21:02.301Z,2.10
2023-03-27T05:22:02.304Z,2.20
2023-03-27T05:23:02.326Z,2.30
2023-03-27T05:24:02.246Z,2.10
2023-03-27T05:25:02.367Z,2.10
2023-03-27T05:26:02.344Z,2.30
2023-03-27T05:27:02.263Z,2.10
2023-03-27T05:28:02.273Z,2.00
2023-03-27T05:29:02.222Z,2.20
2023-03-27T05:30:02.249Z,2.20
2023-03-27T05:31:02.256Z,3.10
2023-03-27T05:32:02.237Z,2.10
2023-03-27T05:33:02.241Z,2.20
2023-03-27T05:34:02.191Z,2.30
2023-03-27T05:35:02.154Z,2.60
2023-03-27T05:36:02.198Z,2.50
2023-03-27T05:37:02.164Z,2.50
2023-03-27T05:38:02.201Z,2.60
2023-03-27T05:39:02.227Z,2.30
2023-03-27T05:40:02.094Z,2.20
2023-03-27T05:41:02.193Z,2.60
2023-03-27T05:42:02.091Z,2.10
2023-03-27T05:43:02.199Z,2.60
2023-03-27T05:44:02.045Z,2.10
2023-03-27T05:45:02.098Z,2.30
2023-03-27T05:46:02.050Z,2.30
2023-03-27T05:47:02.033Z,2.40
2023-03-27T05:48:02.096Z,2.40
2023-03-27T05:49:02.039Z,2.30
2023-03-27T05:50:02.008Z,2.30
2023-03-27T05:51:02.028Z,2.20
2023-03-27T05:52:01.989Z,2.80
2023-03-27T05:53:01.980Z,2.40
2023-03-27T05:54:02.027Z,2.30
2023-03-27T05:55:01.949Z,2.30
2023-03-27T05:56:03.143Z,2.40
2023-03-27T05:57:01.992Z,2.40
2023-03-27T05:58:01.918Z,2.20
2023-03-27T05:59:03.091Z,2.20
2023-03-27T06:00:01.963Z,2.20
2023-03-27T06:01:01.884Z,2.00
2023-03-27T06:02:01.893Z,2.10
2023-03-27T06:03:01.987Z,2.00
2023-03-27T06:04:01.911Z,2.20
2023-03-27T06:05:01.907Z,2.30
2023-03-27T06:06:01.833Z,2.00
2023-03-27T06:07:01.831Z,2.60
2023-03-27T06:08:01.810Z,1.80
2023-03-27T06:09:02.867Z,2.50
2023-03-27T06:10:01.795Z,2.20
2023-03-27T06:11:01.786Z,2.50
2023-03-27T06:12:01.765Z,1.90
2023-03-27T06:13:01.769Z,2.00
2023-03-27T06:14:01.810Z,2.40
2023-03-27T06:15:01.797Z,2.10
2023-03-27T06:16:01.751Z,2.30
2023-03-27T06:17:01.757Z,1.80
2023-03-27T06:18:01.737Z,1.80
2023-03-27T06:19:01.716Z,2.00
2023-03-27T06:20:01.689Z,1.70
2023-03-27T06:21:01.680Z,1.90
2023-03-27T06:22:01.710Z,1.80
2023-03-27T06:23:01.664Z,2.40
2023-03-27T06:24:01.653Z,2.40
2023-03-27T06:25:01.657Z,2.20
2023-03-27T06:26:01.640Z,1.70
2023-03-27T06:27:01.651Z,2.10
2023-03-27T06:28:01.602Z,1.80
2023-03-27T06:29:01.689Z,1.50
2023-03-27T06:30:01.580Z,1.80
2023-03-27T06:31:01.635Z,1.80
2023-03-27T06:32:01.574Z,1.80
2023-03-27T06:33:01.603Z,1.80
2023-03-27T06:34:01.794Z,1.60
2023-03-27T06:35:02.349Z,1.70
2023-03-27T06:36:01.587Z,2.30
2023-03-27T06:37:01.596Z,1.80
2023-03-27T06:38:01.522Z,2.20
2023-03-27T06:39:01.527Z,2.10
2023-03-27T06:40:01.506Z,1.70
2023-03-27T06:41:01.496Z,1.90
2023-03-27T06:42:01.665Z,1.90
2023-03-27T06:43:01.444Z,1.90
2023-03-27T06:44:01.431Z,1.80
2023-03-27T06:45:01.492Z,1.70
2023-03-27T06:46:01.459Z,1.80
2023-03-27T06:47:01.435Z,1.60
2023-03-27T06:48:15.308Z,1.70
2023-03-27T06:49:01.429Z,2.20
2023-03-27T06:50:01.427Z,1.90
2023-03-27T06:51:01.419Z,1.80
2023-03-27T06:52:01.413Z,2.20
2023-03-27T06:54:01.340Z,2.30
2023-03-27T06:55:01.327Z,1.70
2023-03-27T06:56:02.677Z,1.80
2023-03-27T06:57:01.449Z,2.50
2023-03-27T06:58:01.500Z,1.90
2023-03-27T06:59:01.483Z,2.00
2023-03-27T07:00:02.444Z,1.90
2023-03-27T07:01:02.474Z,2.00
2023-03-27T07:02:01.370Z,1.70
2023-03-27T07:03:01.318Z,1.80
2023-03-27T07:04:01.269Z,2.20
2023-03-27T07:05:04.960Z,1.80
2023-03-27T07:06:01.548Z,2.00
2023-03-27T07:07:01.220Z,1.90
2023-03-27T07:08:08.363Z,1.80
2023-03-27T07:09:01.230Z,2.00
2023-03-27T07:10:01.251Z,1.80
2023-03-27T07:11:11.618Z,1.90
2023-03-27T07:12:01.190Z,1.90
2023-03-27T07:13:01.236Z,1.90
2023-03-27T07:14:01.607Z,2.00
2023-03-27T07:15:01.169Z,1.80
2023-03-27T07:16:01.152Z,1.90
2023-03-27T07:17:01.212Z,1.70
2023-03-27T07:18:01.139Z,2.70
2023-03-27T07:19:02.141Z,2.80
2023-03-27T07:20:01.104Z,1.90
2023-03-27T07:21:01.183Z,1.60
2023-03-27T07:22:01.047Z,1.90
2023-03-27T07:23:01.133Z,3.10
2023-03-27T07:24:01.063Z,3.20
2023-03-27T07:25:01.049Z,2.10
2023-03-27T07:26:01.083Z,2.00
2023-03-27T07:27:01.055Z,2.00
2023-03-27T07:28:01.162Z,2.20
2023-03-27T07:29:01.013Z,1.90
2023-03-27T07:30:00.999Z,1.40
2023-03-27T07:31:01.012Z,1.40
2023-03-27T07:32:04.497Z,1.40
2023-03-27T07:33:01.026Z,1.60
2023-03-27T07:34:01.038Z,1.40
2023-03-27T07:35:00.954Z,1.90
2023-03-27T07:36:01.129Z,1.50
2023-03-27T07:37:00.937Z,2.00
2023-03-27T07:38:00.995Z,2.00
2023-03-27T07:39:00.908Z,1.30
2023-03-27T07:40:00.883Z,1.60
2023-03-27T07:41:00.910Z,1.70
2023-03-27T07:42:00.908Z,2.50
2023-03-27T07:43:00.898Z,2.10
2023-03-27T07:44:00.942Z,2.10
2023-03-27T07:45:02.781Z,2.40
2023-03-27T07:46:00.979Z,2.90
2023-03-27T07:47:00.836Z,2.00
2023-03-27T07:48:01.910Z,1.20
2023-03-27T07:49:00.846Z,1.70
2023-03-27T07:50:01.015Z,1.40
2023-03-27T07:51:10.776Z,1.70
2023-03-27T07:52:00.869Z,1.60
2023-03-27T07:53:00.781Z,1.70
2023-03-27T07:54:00.743Z,2.10
2023-03-27T07:55:00.791Z,1.40
2023-03-27T07:56:00.741Z,1.70
2023-03-27T07:57:00.902Z,1.40
2023-03-27T07:58:02.778Z,1.40
2023-03-27T07:59:00.736Z,1.20
2023-03-27T08:00:00.723Z,1.20
2023-03-27T08:01:01.030Z,1.60
2023-03-27T08:02:00.772Z,1.50
2023-03-27T08:03:00.868Z,1.30
2023-03-27T08:04:00.905Z,1.40
2023-03-27T08:05:00.761Z,1.70
2023-03-27T08:06:00.816Z,1.10
2023-03-27T08:07:00.674Z,1.20
2023-03-27T08:08:00.575Z,1.30
2023-03-27T08:09:02.695Z,1.30
2023-03-27T08:10:00.697Z,1.40
2023-03-27T08:11:00.766Z,1.50
2023-03-27T08:12:00.639Z,1.30
2023-03-27T08:13:00.539Z,2.00
2023-03-27T08:14:00.591Z,1.50
2023-03-27T08:15:00.533Z,1.30
2023-03-27T08:16:00.516Z,1.60
2023-03-27T08:17:12.700Z,1.60
2023-03-27T08:18:00.653Z,1.30
2023-03-27T08:19:00.618Z,1.30
2023-03-27T08:20:00.504Z,1.90
2023-03-27T08:21:00.466Z,1.50
2023-03-27T08:22:00.494Z,1.40
2023-03-27T08:23:00.483Z,1.30
2023-03-27T08:24:00.469Z,1.50
2023-03-27T08:25:00.429Z,1.50
2023-03-27T08:26:00.532Z,1.70
2023-03-27T08:27:00.452Z,1.70
2023-03-27T08:28:00.407Z,1.50
2023-03-27T08:29:00.532Z,1.40
2023-03-27T08:30:00.481Z,1.40
2023-03-27T08:31:02.548Z,1.60
2023-03-27T08:32:00.319Z,1.60
2023-03-27T08:33:00.374Z,1.70
2023-03-27T08:34:00.339Z,1.40
2023-03-27T08:35:00.322Z,1.70
2023-03-27T08:36:00.407Z,1.70
2023-03-27T08:37:00.293Z,1.60
2023-03-27T08:38:00.298Z,1.70
2023-03-27T08:39:00.293Z,1.70
2023-03-27T08:40:00.243Z,1.50
2023-03-27T08:41:00.280Z,1.60
2023-03-27T08:42:00.268Z,1.40
2023-03-27T08:43:00.268Z,1.60
2023-03-27T08:44:00.224Z,1.50
2023-03-27T08:45:00.212Z,1.50
2023-03-27T08:46:00.447Z,1.50
2023-03-27T08:47:00.206Z,1.50
2023-03-27T08:48:00.259Z,1.40
2023-03-27T08:49:00.242Z,1.60
2023-03-27T08:50:00.211Z,1.60
2023-03-27T08:51:00.226Z,1.30
2023-03-27T08:52:00.136Z,1.70
2023-03-27T08:53:00.170Z,1.30
2023-03-27T08:54:00.269Z,1.50
2023-03-27T08:55:00.140Z,1.40
2023-03-27T08:56:00.109Z,1.30
2023-03-27T08:57:00.752Z,1.40
2023-03-27T08:58:00.140Z,1.40
2023-03-27T08:59:00.106Z,1.80
2023-03-27T09:00:00.151Z,1.60
2023-03-27T09:01:00.041Z,1.90
2023-03-27T09:02:00.130Z,1.40
2023-03-27T09:03:00.235Z,1.60
2023-03-27T09:04:00.227Z,1.40
2023-03-27T09:05:00.175Z,1.20
2023-03-27T09:06:00.157Z,1.30
2023-03-27T09:06:59.996Z,1.40
2023-03-27T09:07:59.983Z,1.30
2023-03-27T09:08:59.978Z,1.40
2023-03-27T09:10:00.056Z,1.60
2023-03-27T09:10:59.976Z,1.40
2023-03-27T09:11:59.959Z,1.40
2023-03-27T09:12:59.904Z,1.50
2023-03-27T09:13:59.945Z,1.30
2023-03-27T09:14:59.933Z,1.50
2023-03-27T09:16:00.173Z,1.30
2023-03-27T09:16:59.891Z,1.30
2023-03-27T09:17:59.874Z,1.20
2023-03-27T09:18:59.802Z,1.60
2023-03-27T09:19:59.843Z,1.20
2023-03-27T09:20:59.856Z,1.10
2023-03-27T09:21:59.779Z,1.20
2023-03-27T09:22:59.826Z,1.40
2023-03-27T09:23:59.757Z,1.30
2023-03-27T09:24:59.822Z,1.20
2023-03-27T09:25:59.793Z,1.20
2023-03-27T09:27:07.321Z,1.40
2023-03-27T09:27:59.776Z,1.20
2023-03-27T09:28:59.751Z,1.20
2023-03-27T09:30:05.684Z,1.30
2023-03-27T09:30:59.700Z,1.00
2023-03-27T09:31:59.695Z,1.10
2023-03-27T09:32:59.792Z,1.20
2023-03-27T09:33:59.732Z,1.00
2023-03-27T09:34:59.677Z,1.30
2023-03-27T09:36:00.037Z,1.10
2023-03-27T09:36:59.707Z,0.90
2023-03-27T09:37:59.642Z,1.20
2023-03-27T09:38:59.650Z,1.30
2023-03-27T09:39:59.622Z,1.10
2023-03-27T09:40:59.567Z,1.10
2023-03-27T09:41:59.572Z,1.10
2023-03-27T09:42:59.558Z,1.10
2023-03-27T09:43:59.584Z,1.20
2023-03-27T09:44:59.545Z,1.20
2023-03-27T09:45:59.568Z,1.10
2023-03-27T09:46:59.584Z,1.00
2023-03-27T09:47:59.591Z,1.20
2023-03-27T09:48:59.524Z,1.10
2023-03-27T09:49:59.506Z,1.50
2023-03-27T09:50:59.491Z,1.30
2023-03-27T09:51:59.525Z,1.20
2023-03-27T09:52:59.435Z,1.30
2023-03-27T09:53:59.487Z,1.20
2023-03-27T09:54:59.426Z,1.30
2023-03-27T09:56:00.490Z,1.10
2023-03-27T09:56:59.453Z,1.10
2023-03-27T09:57:59.410Z,1.10
2023-03-27T09:58:59.436Z,1.00
2023-03-27T09:59:59.387Z,1.40
2023-03-27T10:00:59.505Z,1.20
2023-03-27T10:01:59.395Z,1.10
2023-03-27T10:02:59.393Z,1.10
2023-03-27T10:03:59.415Z,1.20
2023-03-27T10:04:59.405Z,1.00
2023-03-27T10:05:59.360Z,1.20
2023-03-27T10:06:59.269Z,1.40
2023-03-27T10:07:59.302Z,0.90
2023-03-27T10:08:59.286Z,1.20
2023-03-27T10:09:59.258Z,1.30
2023-03-27T10:10:59.418Z,1.00
2023-03-27T10:11:59.280Z,1.00
2023-03-27T10:12:59.269Z,1.00
2023-03-27T10:13:59.250Z,1.20
2023-03-27T10:14:59.211Z,1.40
2023-03-27T10:15:59.251Z,1.40
2023-03-27T10:16:59.297Z,1.20
2023-03-27T10:17:59.318Z,1.40
2023-03-27T10:18:59.179Z,1.30
2023-03-27T10:19:59.165Z,1.10
2023-03-27T10:20:59.395Z,0.90
2023-03-27T10:21:59.155Z,1.60
2023-03-27T10:22:59.204Z,1.50
2023-03-27T10:23:59.177Z,1.10
2023-03-27T10:24:59.146Z,1.20
2023-03-27T10:25:59.116Z,1.10
2023-03-27T10:26:59.122Z,1.00
2023-03-27T10:27:59.089Z,1.00
2023-03-27T10:28:59.060Z,1.10
2023-03-27T10:29:59.090Z,1.00
2023-03-27T10:30:59.292Z,1.30
2023-03-27T10:31:59.093Z,1.00
2023-03-27T10:32:59.071Z,1.30
2023-03-27T10:33:59.011Z,1.10
2023-03-27T10:34:59.029Z,1.10
2023-03-27T10:35:59.071Z,1.00
2023-03-27T10:36:59.011Z,1.00
2023-03-27T10:37:59.010Z,1.00
2023-03-27T10:38:58.973Z,1.00
2023-03-27T10:39:58.962Z,1.20
2023-03-27T10:40:59.103Z,1.80
2023-03-27T10:41:58.950Z,1.30
2023-03-27T10:42:58.914Z,0.90
2023-03-27T10:43:58.985Z,1.00
2023-03-27T10:44:58.949Z,1.30
2023-03-27T10:45:59.035Z,0.90
2023-03-27T10:46:58.866Z,0.90
2023-03-27T10:47:58.965Z,1.00
2023-03-27T10:48:58.929Z,0.90
2023-03-27T10:49:58.911Z,1.00
2023-03-27T10:50:59.380Z,0.90
2023-03-27T10:51:58.913Z,1.00
2023-03-27T10:52:58.882Z,0.80
2023-03-27T10:53:59.047Z,0.60
2023-03-27T10:54:58.874Z,0.90
2023-03-27T10:55:58.807Z,0.60
2023-03-27T10:56:58.809Z,0.80
2023-03-27T10:57:58.793Z,0.80
2023-03-27T10:58:58.836Z,0.90
2023-03-27T10:59:58.833Z,0.90
2023-03-27T11:00:59.287Z,1.00
2023-03-27T11:01:58.816Z,0.90
2023-03-27T11:02:58.856Z,1.20
2023-03-27T11:03:58.730Z,0.80
2023-03-27T11:04:58.762Z,0.80
2023-03-27T11:05:58.676Z,0.80
2023-03-27T11:06:58.709Z,0.90
2023-03-27T11:07:58.674Z,0.70
2023-03-27T11:08:58.679Z,0.80
2023-03-27T11:09:58.708Z,0.90
2023-03-27T11:10:58.957Z,0.90
2023-03-27T11:11:58.736Z,0.90
2023-03-27T11:12:58.600Z,1.00
2023-03-27T11:13:58.640Z,0.90
2023-03-27T11:14:58.858Z,1.10
2023-03-27T11:15:58.582Z,0.90
2023-03-27T11:16:58.676Z,0.80
2023-03-27T11:17:58.706Z,0.80
2023-03-27T11:18:58.823Z,0.70
2023-03-27T11:19:58.541Z,0.80
2023-03-27T11:21:01.542Z,0.80
2023-03-27T11:21:58.526Z,0.80
2023-03-27T11:22:58.523Z,0.80
2023-03-27T11:23:58.580Z,0.90
2023-03-27T11:24:58.475Z,0.60
2023-03-27T11:25:58.500Z,0.80
2023-03-27T11:26:58.497Z,0.70
2023-03-27T11:27:58.501Z,0.90
2023-03-27T11:28:58.558Z,0.70
2023-03-27T11:29:58.561Z,0.90
2023-03-27T11:30:58.893Z,0.90
2023-03-27T11:31:58.962Z,1.40
2023-03-27T11:32:58.503Z,1.00
2023-03-27T11:33:58.773Z,0.80
2023-03-27T11:34:58.566Z,0.80
2023-03-27T11:35:58.455Z,0.60
2023-03-27T11:36:58.492Z,0.70
2023-03-27T11:37:58.342Z,0.70
2023-03-27T11:38:58.335Z,0.60
2023-03-27T11:39:58.456Z,0.50
2023-03-27T11:40:58.667Z,0.60
2023-03-27T11:41:58.282Z,0.90
2023-03-27T11:42:58.313Z,0.70
2023-03-27T11:43:58.239Z,0.80
2023-03-27T11:44:58.263Z,1.10
2023-03-27T11:45:58.402Z,0.80
2023-03-27T11:46:58.235Z,1.00
2023-03-27T11:47:58.260Z,0.90
2023-03-27T11:48:58.273Z,0.80
2023-03-27T11:49:58.209Z,0.80
2023-03-27T11:50:58.401Z,0.80
2023-03-27T11:51:58.187Z,1.10
2023-03-27T11:52:58.215Z,0.80
2023-03-27T11:53:58.145Z,0.80
2023-03-27T11:54:58.188Z,0.80
2023-03-27T11:55:58.157Z,0.90
2023-03-27T11:56:58.298Z,0.80
2023-03-27T11:57:58.119Z,0.80
2023-03-27T11:58:58.133Z,1.10
2023-03-27T11:59:58.080Z,0.60
2023-03-27T12:00:58.448Z,1.40
2023-03-27T12:01:58.154Z,0.80
2023-03-27T12:02:58.093Z,1.00
2023-03-27T12:03:58.181Z,0.80
2023-03-27T12:04:58.024Z,0.90
2023-03-27T12:05:58.064Z,0.80
2023-03-27T12:07:03.979Z,0.70
2023-03-27T12:07:58.098Z,0.60
2023-03-27T12:08:58.040Z,0.70
2023-03-27T12:09:57.999Z,1.30
2023-03-27T12:10:58.134Z,0.90
2023-03-27T12:11:57.979Z,1.00
2023-03-27T12:12:57.935Z,0.70
2023-03-27T12:14:01.757Z,1.00
2023-03-27T12:14:57.946Z,1.20
2023-03-27T12:15:57.941Z,0.90
2023-03-27T12:16:57.932Z,1.00
2023-03-27T12:17:57.961Z,1.00
2023-03-27T12:19:03.975Z,0.90
2023-03-27T12:19:57.912Z,1.10
2023-03-27T12:20:57.881Z,0.90
2023-03-27T12:21:57.843Z,1.00
2023-03-27T12:22:57.822Z,0.90
2023-03-27T12:23:57.845Z,0.90
2023-03-27T12:24:59.925Z,1.00
2023-03-27T12:25:57.815Z,0.80
2023-03-27T12:26:57.808Z,1.00
2023-03-27T12:27:57.827Z,0.80
2023-03-27T12:28:57.809Z,0.70
2023-03-27T12:29:57.759Z,0.80
2023-03-27T12:30:57.915Z,0.80
2023-03-27T12:31:57.811Z,0.70
2023-03-27T12:32:59.962Z,0.70
2023-03-27T12:33:57.740Z,0.70
2023-03-27T12:34:57.736Z,0.70
2023-03-27T12:35:57.726Z,0.60
2023-03-27T12:36:57.768Z,0.50
2023-03-27T12:37:57.702Z,0.40
2023-03-27T12:38:57.704Z,0.40
2023-03-27T12:39:57.673Z,0.50
2023-03-27T12:40:57.822Z,0.40
2023-03-27T12:41:57.644Z,0.40
2023-03-27T12:42:57.608Z,0.30
2023-03-27T12:43:57.710Z,0.40
2023-03-27T12:44:59.957Z,0.40
2023-03-27T12:45:57.641Z,0.50
2023-03-27T12:46:57.612Z,0.40
2023-03-27T12:47:57.704Z,0.40
2023-03-27T12:48:57.563Z,0.40
2023-03-27T12:49:57.560Z,0.80
2023-03-27T12:50:57.853Z,0.50
2023-03-27T12:51:57.531Z,0.60
2023-03-27T12:52:57.515Z,0.80
2023-03-27T12:53:57.533Z,0.90
2023-03-27T12:54:57.504Z,0.70
2023-03-27T12:55:57.679Z,0.70
2023-03-27T12:56:57.598Z,0.70
2023-03-27T12:57:57.706Z,0.80
2023-03-27T12:58:57.451Z,0.70
2023-03-27T12:59:57.454Z,0.80
2023-03-27T13:00:57.607Z,0.70
2023-03-27T13:01:57.449Z,0.70
2023-03-27T13:02:57.543Z,0.70
2023-03-27T13:03:57.631Z,0.70
2023-03-27T13:04:57.421Z,0.80
2023-03-27T13:05:57.424Z,0.70
2023-03-27T13:06:57.358Z,0.90
2023-03-27T13:07:57.532Z,0.80
2023-03-27T13:08:57.339Z,0.70
2023-03-27T13:09:57.340Z,0.80
2023-03-27T13:10:57.536Z,0.70
2023-03-27T13:11:57.355Z,0.60
2023-03-27T13:12:57.338Z,0.80
2023-03-27T13:13:57.325Z,0.80
2023-03-27T13:14:57.309Z,1.10
2023-03-27T13:15:57.513Z,0.80
2023-03-27T13:16:57.303Z,0.90
2023-03-27T13:17:57.285Z,0.90
2023-03-27T13:18:57.234Z,1.10